HOURLY OBS INDEX

062

Central Tablelands - north

MUDGEE AIRPORT AWS

Site: 062101
Alt: 471.0m
4km NE of MUDGEE


  Time     Wind        Temp  DP   Baro     Rain since   Rain past  Vis(m), Cloud(base in m), Weather
  local        km/h                         9am  last   hr   10m    
Mon 21:00  ESE 20/ 33  12.1  8.0  1018.5    9.4   0.0   0.0   0.0   10000|SC 900 SC2040 OC2400 
Mon 21:30  ESE 22/ 35  12.0  7.9  1018.7    9.4   0.0   0.0   0.0   10000|SC 840 BR2400 
Mon 22:00  ESE 24/ 35  12.0  7.7  1018.8    9.4   0.0   0.0   0.0   10000|SC 840 
Mon 22:30  ESE 20/ 33  11.8  7.7  1018.9    9.4   0.0   0.0   0.0   10000|SC 780 
Mon 23:00  ESE 20/ 35  11.6  7.7  1019.0    9.4   0.0   0.0   0.0   10000|SC 720 BR1470 BR1890 
Mon 23:24  ESE 17/ 26  11.4  7.7  1019.0    9.4   0.0  ----   0.0   10000|BR 720 BR1470 
Mon 23:30  ESE 15/ 26  11.4  7.9  1018.9    9.4   0.0   0.0   0.0   10000|SC 720 BR1470 
Tue 00:00  ESE 15/ 22  11.7  8.2  1019.0    9.4   0.0   0.0   0.0   10000|OC 720 
Tue 00:30  ESE 15/ 28  11.7  8.4  1018.9    9.4   0.0   0.0   0.0   10000|OC 720 
Tue 01:00    E 11/ 19  11.8  8.5  1019.0    9.4   0.0   0.0   0.0   10000|OC 660 
Tue 01:30  ESE 13/ 24  11.9  8.6  1018.7    9.4   0.0   0.0   0.0   10000|OC 660 
Tue 02:00  ESE  9/ 17  12.0  8.5  1018.7    9.4   0.0   0.0   0.0   10000|OC 660 
Tue 02:30  ESE 13/ 22  12.0  8.5  1018.5    9.4   0.0   0.0   0.0   10000|OC 660 

NULLO MOUNTAIN AWS

Site: 062100
Alt: 1130.0m
62km ESE of MUDGEE


  Time     Wind        Temp  DP   Baro     Rain since   Rain past  Vis(m), Cloud(base in m), Weather
  local        km/h                         9am  last   hr   10m    
Mon 21:00   SE 24/ 39   6.0  6.0  ------    5.6   0.0   0.0   0.0   ----- 
Mon 21:30   SE 24/ 37   5.9  5.9  ------    5.6   0.0   0.0   0.0   ----- 
Mon 22:00   SE 24/ 43   5.9  5.9  ------    5.6   0.0   0.0   0.0   ----- 
Mon 22:30   SE 24/ 39   6.1  6.1  ------    5.6   0.0   0.0   0.0   ----- 
Mon 23:00   SE 22/ 37   6.2  6.2  ------    5.6   0.0   0.0   0.0   ----- 
Mon 23:30   SE 22/ 35   6.2  6.2  ------    5.8   0.2   0.2   0.0   ----- 
Tue 00:00  ESE 26/ 46   6.3  6.3  ------    5.8   0.0   0.2   0.0   ----- 
Tue 00:05   SE 28/ 46   6.4  6.4  ------    5.8   0.0  ----   0.0   ----- 
Tue 00:30   SE 26/ 39   6.4  6.4  ------    5.8   0.0   0.0   0.0   ----- 
Tue 01:00   SE 24/ 35   6.4  6.4  ------    5.8   0.0   0.0   0.0   ----- 
Tue 01:30   SE 22/ 33   6.3  6.3  ------    5.8   0.0   0.0   0.0   ----- 
Tue 02:00  ESE 22/ 33   6.4  6.4  ------    5.8   0.0   0.0   0.0   ----- 
Tue 02:30  ESE 24/ 35   6.5  6.5  ------    5.8   0.0   0.0   0.0   -----